| time (UTC) | temp F | wind direction | speed MPH | gust MPH | rain 1hr in | rain 24hr in | rain mn in | humidity % | barometer mb |
| 20260510230522 | 71 | 270 | 2.0 | 2.0 | 0.00 | 0.00 | 0.00 | 71 | |
| 20260510225522 | 71 | 266 | 1.0 | 2.0 | 0.00 | 0.00 | 0.00 | 69 | |
| 20260510224522 | 72 | 290 | 2.0 | 3.0 | 0.00 | 0.00 | 0.00 | 69 | |
| 20260510223521 | 72 | 243 | 2.0 | 3.0 | 0.00 | 0.00 | 0.00 | 70 | |
| 20260510222522 | 72 | 297 | 1.0 | 3.0 | 0.00 | 0.00 | 0.00 | 68 | |
| 20260510221522 | 72 | 275 | 1.0 | 3.0 | 0.00 | 0.00 | 0.00 | 66 | |
| 20260510220522 | 73 | 280 | 2.0 | 3.0 | 0.00 | 0.00 | 0.00 | 63 | |
| 20260510215522 | 75 | 267 | 2.0 | 4.0 | 0.00 | 0.00 | 0.00 | 57 | |
| 20260510214522 | 73 | 273 | 1.0 | 2.0 | 0.00 | 0.00 | 0.00 | 65 | |
| 20260510213521 | 75 | 276 | 1.0 | 2.0 | 0.00 | 0.00 | 0.00 | 59 | |
| 20260510212522 | 76 | 177 | 3.0 | 4.0 | 0.00 | 0.00 | 0.00 | 48 | |
| 20260510211541 | 78 | 143 | 3.0 | 6.0 | 0.00 | 0.00 | 0.00 | 47 | |
| 20260510210541 | 78 | 46 | 3.0 | 7.0 | 0.00 | 0.00 | 0.00 | 45 | |
| 20260510205522 | 79 | 349 | 3.0 | 5.0 | 0.00 | 0.00 | 0.00 | 46 | |
| 20260510204521 | 79 | 9 | 2.0 | 6.0 | 0.00 | 0.00 | 0.00 | 45 | |
| 20260510203521 | 79 | 102 | 2.0 | 5.0 | 0.00 | 0.00 | 0.00 | 45 | |
| 20260510202521 | 79 | 104 | 3.0 | 5.0 | 0.00 | 0.00 | 0.00 | 47 | |
| 20260510201601 | 78 | 130 | 3.0 | 7.0 | 0.00 | 0.00 | 0.00 | 48 | |
| 20260510200521 | 76 | 118 | 2.0 | 4.0 | 0.00 | 0.00 | 0.00 | 61 | |
| 20260510195521 | 74 | 255 | 2.0 | 5.0 | 0.00 | 0.00 | 0.00 | 61 | |
| 20260510194542 | 75 | 288 | 2.0 | 5.0 | 0.00 | 0.00 | 0.00 | 61 | |
| 20260510193521 | 76 | 209 | 1.0 | 2.0 | 0.00 | 0.00 | 0.00 | 58 | |
| 20260510192520 | 77 | 96 | 3.0 | 4.0 | 0.00 | 0.00 | 0.00 | 46 | |
| 20260510191521 | 76 | 51 | 4.0 | 7.0 | 0.00 | 0.00 | 0.00 | 47 | |
| 20260510190521 | 78 | 57 | 4.0 | 7.0 | 0.00 | 0.00 | 0.00 | 44 | |
| 20260510185540 | 81 | 60 | 4.0 | 6.0 | 0.00 | 0.00 | 0.00 | 39 | |
| 20260510184540 | 81 | 84 | 4.0 | 6.0 | 0.00 | 0.00 | 0.00 | 42 | |
| 20260510183521 | 80 | 144 | 3.0 | 7.0 | 0.00 | 0.00 | 0.00 | 43 | |
| 20260510182520 | 79 | 68 | 3.0 | 6.0 | 0.00 | 0.00 | 0.00 | 43 | |
| 20260510181520 | 78 | 121 | 2.0 | 4.0 | 0.00 | 0.00 | 0.00 | 48 | |
| 20260510180520 | 80 | 122 | 3.0 | 5.0 | 0.00 | 0.00 | 0.00 | 45 | |
| 20260510175520 | 79 | 138 | 3.0 | 5.0 | 0.00 | 0.00 | 0.00 | 44 | |
| 20260510174520 | 82 | 107 | 3.0 | 5.0 | 0.00 | 0.00 | 0.00 | 42 | |
| 20260510173520 | 82 | 146 | 3.0 | 5.0 | 0.00 | 0.00 | 0.00 | 43 | |
| 20260510172520 | 81 | 84 | 3.0 | 7.0 | 0.00 | 0.00 | 0.00 | 45 | |
| 20260510171540 | 80 | 112 | 5.0 | 9.0 | 0.00 | 0.00 | 0.00 | 45 | |
| 20260510170520 | 80 | 36 | 3.0 | 5.0 | 0.00 | 0.00 | 0.00 | 45 | |
| 20260510165520 | 79 | 21 | 4.0 | 6.0 | 0.00 | 0.00 | 0.00 | 44 | |
| 20260510164540 | 79 | 61 | 4.0 | 7.0 | 0.00 | 0.00 | 0.00 | 46 | |
| 20260510163520 | 79 | 136 | 3.0 | 6.0 | 0.00 | 0.00 | 0.00 | 46 | |
| 20260510162558 | 78 | 94 | 3.0 | 7.0 | 0.00 | 0.00 | 0.00 | 46 | |
| 20260510161519 | 78 | 82 | 3.0 | 5.0 | 0.00 | 0.00 | 0.00 | 48 | |
| 20260510160520 | 78 | 172 | 2.0 | 5.0 | 0.00 | 0.00 | 0.00 | 52 | |
| 20260510155519 | 76 | 84 | 5.0 | 7.0 | 0.00 | 0.00 | 0.00 | 52 | |
| 20260510154520 | 76 | 93 | 3.0 | 8.0 | 0.00 | 0.00 | 0.00 | 53 | |
| 20260510153519 | 75 | 131 | 4.0 | 9.0 | 0.00 | 0.00 | 0.00 | 55 | |
| 20260510152540 | 74 | 92 | 4.0 | 6.0 | 0.00 | 0.00 | 0.00 | 54 | |
| 20260510151519 | 73 | 63 | 3.0 | 6.0 | 0.00 | 0.00 | 0.00 | 61 | |
| 20260510150540 | 72 | 84 | 4.0 | 6.0 | 0.00 | 0.00 | 0.00 | 61 | |
| 20260510145540 | 70 | 119 | 2.0 | 3.0 | 0.00 | 0.00 | 0.00 | 72 | |
| 20260510144520 | 67 | 61 | 1.0 | 2.0 | 0.00 | 0.00 | 0.00 | 81 | |
| 20260510143519 | 68 | 114 | 1.0 | 2.0 | 0.00 | 0.00 | 0.00 | 79 | |
| 20260510142520 | 66 | 0.0 | 0.0 | 0.00 | 0.00 | 0.00 | 79 | ||
| 20260510141539 | 64 | 0.0 | 0.0 | 0.00 | 0.00 | 0.00 | 86 | ||
| 20260510140520 | 62 | 0.0 | 0.0 | 0.00 | 0.00 | 0.00 | 93 | ||
| 20260510135519 | 60 | 0.0 | 0.0 | 0.00 | 0.00 | 0.00 | 98 | ||
| 20260510134520 | 58 | 0.0 | 0.0 | 0.00 | 0.00 | 0.00 | 99 | ||
| 20260510133520 | 56 | 0.0 | 0.0 | 0.00 | 0.00 | 0.00 | 99 | ||
| 20260510132519 | 54 | 0.0 | 0.0 | 0.00 | 0.00 | 0.00 | 99 | ||
| 20260510131519 | 52 | 0.0 | 0.0 | 0.00 | 0.00 | 0.00 | 99 | ||
| 20260510130519 | 50 | 0.0 | 0.0 | 0.00 | 0.00 | 0.00 | 99 | ||
| 20260510125519 | 46 | 0.0 | 0.0 | 0.00 | 0.00 | 0.00 | 99 | ||
| 20260510124519 | 45 | 0.0 | 0.0 | 0.00 | 0.00 | 0.00 | 99 | ||
| 20260510123519 | 44 | 0.0 | 0.0 | 0.00 | 0.00 | 0.00 | 99 | ||
| 20260510122519 | 44 | 0.0 | 0.0 | 0.00 | 0.00 | 0.00 | 99 | ||
| 20260510121520 | 44 | 0.0 | 0.0 | 0.00 | 0.00 | 0.00 | 99 | ||
| 20260510120559 | 43 | 0.0 | 0.0 | 0.00 | 0.00 | 0.00 | 99 | ||
| 20260510115520 | 43 | 0.0 | 0.0 | 0.00 | 0.00 | 0.00 | 99 | ||
| 20260510114519 | 43 | 0.0 | 0.0 | 0.00 | 0.00 | 0.00 | 99 | ||
| 20260510113519 | 43 | 0.0 | 0.0 | 0.00 | 0.00 | 0.00 | 99 | ||
| 20260510112519 | 43 | 0.0 | 0.0 | 0.00 | 0.00 | 0.00 | 99 | ||
| 20260510111519 | 42 | 0.0 | 0.0 | 0.00 | 0.00 | 0.00 | 99 | ||
| 20260510110539 | 43 | 0.0 | 0.0 | 0.00 | 0.00 | 0.00 | 99 | ||
| 20260510105519 | 43 | 0.0 | 0.0 | 0.00 | 0.00 | 0.00 | 99 | ||
| 20260510104519 | 43 | 0.0 | 0.0 | 0.00 | 0.00 | 0.00 | 99 | ||
| 20260510103519 | 43 | 0.0 | 0.0 | 0.00 | 0.00 | 0.00 | 99 | ||
| 20260510102519 | 43 | 0.0 | 0.0 | 0.00 | 0.00 | 0.00 | 99 | ||
| 20260510101519 | 43 | 0.0 | 0.0 | 0.00 | 0.00 | 0.00 | 99 | ||
| 20260510100519 | 43 | 0.0 | 0.0 | 0.00 | 0.00 | 0.00 | 99 | ||
| 20260510095520 | 44 | 0.0 | 0.0 | 0.00 | 0.00 | 0.00 | 99 | ||
| 20260510094519 | 44 | 0.0 | 0.0 | 0.00 | 0.00 | 0.00 | 99 | ||
| 20260510093520 | 44 | 0.0 | 0.0 | 0.00 | 0.00 | 0.00 | 99 | ||
| 20260510092519 | 44 | 0.0 | 0.0 | 0.00 | 0.00 | 0.00 | 99 | ||
| 20260510091519 | 44 | 0.0 | 0.0 | 0.00 | 0.00 | 0.00 | 99 | ||
| 20260510090519 | 44 | 0.0 | 0.0 | 0.00 | 0.00 | 0.00 | 99 | ||
| 20260510085539 | 45 | 0.0 | 0.0 | 0.00 | 0.00 | 0.00 | 99 | ||
| 20260510084519 | 45 | 0.0 | 0.0 | 0.00 | 0.00 | 0.00 | 99 | ||
| 20260510083519 | 45 | 0.0 | 0.0 | 0.00 | 0.00 | 0.00 | 99 | ||
| 20260510082519 | 45 | 0.0 | 0.0 | 0.00 | 0.00 | 0.00 | 99 | ||
| 20260510081519 | 46 | 0.0 | 0.0 | 0.00 | 0.00 | 0.00 | 99 | ||
| 20260510075538 | 46 | 0.0 | 0.0 | 0.00 | 0.00 | 0.00 | 99 | ||
| 20260510074538 | 46 | 0.0 | 0.0 | 0.00 | 0.00 | 0.00 | 99 | ||
| 20260510073538 | 46 | 0.0 | 0.0 | 0.00 | 0.00 | 0.00 | 99 | ||
| 20260510072538 | 46 | 0.0 | 0.0 | 0.00 | 0.00 | 0.00 | 99 | ||
| 20260510071538 | 46 | 0.0 | 0.0 | 0.00 | 0.00 | 0.00 | 99 | ||
| 20260510070558 | 46 | 0.0 | 0.0 | 0.00 | 0.00 | 0.00 | 99 | ||
| 20260510065558 | 46 | 0.0 | 0.0 | 0.00 | 0.00 | 0.00 | 99 | ||
| 20260510064539 | 46 | 0.0 | 0.0 | 0.00 | 0.00 | 0.00 | 99 | ||
| 20260510063519 | 46 | 0.0 | 0.0 | 0.00 | 0.00 | 0.00 | 99 | ||
| 20260510062519 | 46 | 0.0 | 0.0 | 0.00 | 0.00 | 0.00 | 99 | ||
| 20260510061519 | 47 | 0.0 | 0.0 | 0.00 | 0.00 | 0.00 | 99 | ||
| 20260510060520 | 47 | 0.0 | 0.0 | 0.00 | 0.00 | 0.00 | 99 | ||
| 20260510055519 | 47 | 0.0 | 0.0 | 0.00 | 0.00 | 0.00 | 99 | ||
| 20260510054519 | 47 | 0.0 | 0.0 | 0.00 | 0.00 | 0.00 | 99 | ||
| 20260510053519 | 48 | 0.0 | 0.0 | 0.00 | 0.00 | 0.00 | 99 | ||
| 20260510052519 | 48 | 0.0 | 0.0 | 0.00 | 0.00 | 0.00 | 99 | ||
| 20260510051519 | 48 | 0.0 | 0.0 | 0.00 | 0.00 | 0.00 | 99 | ||
| 20260510050520 | 48 | 0.0 | 0.0 | 0.00 | 0.00 | 0.00 | 99 | ||
| 20260510045519 | 48 | 0.0 | 0.0 | 0.00 | 0.00 | 0.00 | 99 | ||
| 20260510044519 | 48 | 0.0 | 0.0 | 0.00 | 0.00 | 0.00 | 99 | ||
| 20260510043519 | 49 | 0.0 | 0.0 | 0.00 | 0.00 | 0.00 | 99 | ||
| 20260510042519 | 49 | 0.0 | 0.0 | 0.00 | 0.00 | 0.00 | 99 | ||
| 20260510041559 | 49 | 0.0 | 0.0 | 0.00 | 0.00 | 0.00 | 99 | ||
| 20260510040519 | 49 | 0.0 | 0.0 | 0.00 | 0.00 | 0.00 | 98 | ||
| 20260510035519 | 50 | 0.0 | 0.0 | 0.00 | 0.00 | 0.00 | 99 | ||
| 20260510034519 | 50 | 0.0 | 0.0 | 0.00 | 0.00 | 0.00 | 99 | ||
| 20260510033520 | 51 | 0.0 | 0.0 | 0.00 | 0.00 | 0.00 | 99 | ||
| 20260510032519 | 51 | 0.0 | 0.0 | 0.00 | 0.00 | 0.00 | 99 | ||
| 20260510031600 | 51 | 0.0 | 0.0 | 0.00 | 0.00 | 0.00 | 99 | ||
| 20260510030519 | 52 | 0.0 | 0.0 | 0.00 | 0.00 | 0.00 | 98 | ||
| 20260510025519 | 52 | 0.0 | 0.0 | 0.00 | 0.00 | 0.00 | 98 | ||
| 20260510024539 | 53 | 0.0 | 0.0 | 0.00 | 0.00 | 0.00 | 98 | ||
| 20260510023519 | 53 | 0.0 | 0.0 | 0.00 | 0.00 | 0.00 | 98 | ||
| 20260510022520 | 53 | 0.0 | 0.0 | 0.00 | 0.00 | 0.00 | 98 | ||
| 20260510021519 | 53 | 0.0 | 0.0 | 0.00 | 0.00 | 0.00 | 98 | ||
| 20260510020539 | 54 | 0.0 | 0.0 | 0.00 | 0.00 | 0.00 | 97 | ||
| 20260510015539 | 54 | 0.0 | 0.0 | 0.00 | 0.00 | 0.00 | 94 | ||
| 20260510014519 | 55 | 0.0 | 0.0 | 0.00 | 0.00 | 0.00 | 94 | ||
| 20260510013519 | 55 | 0.0 | 0.0 | 0.00 | 0.00 | 0.00 | 94 | ||
| 20260510012519 | 56 | 0.0 | 0.0 | 0.00 | 0.00 | 0.00 | 93 | ||
| 20260510011519 | 56 | 0.0 | 0.0 | 0.00 | 0.00 | 0.00 | 93 | ||
| 20260510010519 | 57 | 0.0 | 0.0 | 0.00 | 0.00 | 0.00 | 91 | ||
| 20260510005520 | 58 | 0.0 | 0.0 | 0.00 | 0.00 | 0.00 | 91 | ||
| 20260510004519 | 58 | 0.0 | 0.0 | 0.00 | 0.00 | 0.00 | 90 | ||
| 20260510003519 | 59 | 0.0 | 0.0 | 0.00 | 0.00 | 0.00 | 89 | ||
| 20260510002519 | 60 | 0.0 | 0.0 | 0.00 | 0.00 | 0.00 | 89 | ||
| 20260510001520 | 60 | 0.0 | 0.0 | 0.00 | 0.00 | 0.00 | 88 | ||
| 20260510000519 | 61 | 0.0 | 0.0 | 0.00 | 0.00 | 0.00 | 88 | ||
| 20260509235539 | 61 | 0.0 | 0.0 | 0.00 | 0.00 | 0.00 | 87 | ||
| 20260509234540 | 62 | 0.0 | 0.0 | 0.00 | 0.00 | 0.00 | 85 | ||
| 20260509233519 | 62 | 0.0 | 0.0 | 0.00 | 0.00 | 0.00 | 87 | ||
| 20260509232520 | 63 | 272 | 1.0 | 3.0 | 0.00 | 0.00 | 0.00 | 84 | |
| 20260509231520 | 63 | 265 | 1.0 | 2.0 | 0.00 | 0.00 | 0.00 | 83 |